createdAt,value
2023-11-30T00:00:01.465Z,50.90
2023-11-30T00:02:32.362Z,50.90
2023-11-30T00:05:03.915Z,50.90
2023-11-30T00:07:32.484Z,51.10
2023-11-30T00:10:01.334Z,51.10
2023-11-30T00:12:29.879Z,51.20
2023-11-30T00:14:58.388Z,51.20
2023-11-30T00:17:26.991Z,51.20
2023-11-30T00:19:55.591Z,51.30
2023-11-30T00:22:25.504Z,51.30
2023-11-30T00:24:54.215Z,51.30
2023-11-30T00:27:22.776Z,51.30
2023-11-30T00:29:51.295Z,51.40
2023-11-30T00:32:20.436Z,51.40
2023-11-30T00:34:48.940Z,51.40
2023-11-30T00:37:17.674Z,51.30
2023-11-30T00:39:49.101Z,51.20
2023-11-30T00:42:17.898Z,51.30
2023-11-30T00:44:46.738Z,51.30
2023-11-30T00:47:15.465Z,51.30
2023-11-30T00:49:44.229Z,51.30
2023-11-30T00:52:13.324Z,51.40
2023-11-30T00:54:41.850Z,51.40
2023-11-30T00:57:12.172Z,51.30
2023-11-30T00:59:40.629Z,51.30
2023-11-30T01:02:09.205Z,51.30
2023-11-30T01:04:37.950Z,51.30
2023-11-30T01:07:06.849Z,51.30
2023-11-30T01:09:35.381Z,51.40
2023-11-30T01:12:04.215Z,51.40
2023-11-30T01:14:34.831Z,51.50
2023-11-30T01:17:03.629Z,51.40
2023-11-30T01:19:32.060Z,51.40
2023-11-30T01:22:00.768Z,51.40
2023-11-30T01:24:30.835Z,51.50
2023-11-30T01:26:59.489Z,51.40
2023-11-30T01:29:28.171Z,51.50
2023-11-30T01:31:58.143Z,51.40
2023-11-30T01:34:27.130Z,51.50
2023-11-30T01:36:55.981Z,51.50
2023-11-30T01:39:24.522Z,51.50
2023-11-30T01:41:53.214Z,51.40
2023-11-30T01:44:21.791Z,51.40
2023-11-30T01:46:51.614Z,51.50
2023-11-30T01:49:21.637Z,51.40
2023-11-30T01:51:51.240Z,51.50
2023-11-30T01:54:20.991Z,51.70
2023-11-30T01:56:49.757Z,51.40
2023-11-30T01:59:18.335Z,51.40
2023-11-30T02:01:47.541Z,51.50
2023-11-30T02:04:17.695Z,51.40
2023-11-30T02:06:49.305Z,51.40
2023-11-30T02:09:18.677Z,51.40
2023-11-30T02:11:47.735Z,51.50
2023-11-30T02:14:16.332Z,51.50
2023-11-30T02:16:44.990Z,51.50
2023-11-30T02:19:13.568Z,51.50
2023-11-30T02:21:50.883Z,51.50
2023-11-30T02:24:19.758Z,51.50
2023-11-30T02:26:48.532Z,51.50
2023-11-30T02:29:18.060Z,51.60
2023-11-30T02:31:46.776Z,51.60
2023-11-30T02:34:15.348Z,51.60
2023-11-30T02:36:44.232Z,51.60
2023-11-30T02:39:14.504Z,51.60
2023-11-30T02:41:43.056Z,51.50
2023-11-30T02:44:11.593Z,51.50
2023-11-30T02:46:40.204Z,51.50
2023-11-30T02:49:08.613Z,51.60
2023-11-30T02:51:37.848Z,51.50
2023-11-30T02:54:06.883Z,51.60
2023-11-30T02:56:42.331Z,51.50
2023-11-30T02:59:11.015Z,51.60
2023-11-30T03:01:46.074Z,51.60
2023-11-30T03:04:15.113Z,51.50
2023-11-30T03:06:44.526Z,51.50
2023-11-30T03:09:13.653Z,51.50
2023-11-30T03:11:43.568Z,51.50
2023-11-30T03:14:12.781Z,51.50
2023-11-30T03:16:41.363Z,51.50
2023-11-30T03:19:17.102Z,51.50
2023-11-30T03:21:46.634Z,51.50
2023-11-30T03:24:15.793Z,51.50
2023-11-30T03:26:45.713Z,51.60
2023-11-30T03:29:14.309Z,51.60
2023-11-30T03:31:43.760Z,51.60
2023-11-30T03:34:12.417Z,51.60
2023-11-30T03:36:41.474Z,51.70
2023-11-30T03:39:10.324Z,51.60
2023-11-30T03:41:38.862Z,51.60
2023-11-30T03:44:09.413Z,51.50
2023-11-30T03:46:38.798Z,51.60
2023-11-30T03:49:07.370Z,51.60
2023-11-30T03:51:35.943Z,51.50
2023-11-30T03:54:04.726Z,51.60
2023-11-30T03:56:33.812Z,51.60
2023-11-30T03:59:02.556Z,51.60
2023-11-30T04:01:32.457Z,51.60
2023-11-30T04:04:01.091Z,51.50
2023-11-30T04:06:29.666Z,52.20
2023-11-30T04:09:00.670Z,51.60
2023-11-30T04:11:29.370Z,51.60
2023-11-30T04:14:07.349Z,51.50
2023-11-30T04:16:38.530Z,51.50
2023-11-30T04:19:09.128Z,51.50
2023-11-30T04:21:37.919Z,51.50
2023-11-30T04:24:06.518Z,51.50
2023-11-30T04:26:35.070Z,51.50
2023-11-30T04:29:03.743Z,51.50
2023-11-30T04:31:32.690Z,51.60
2023-11-30T04:34:03.127Z,51.60
2023-11-30T04:36:32.006Z,51.90
2023-11-30T04:39:00.587Z,52.20
2023-11-30T04:41:29.123Z,53.20
2023-11-30T04:43:59.070Z,53.50
2023-11-30T04:46:27.753Z,54.00
2023-11-30T04:48:56.248Z,53.80
2023-11-30T04:51:26.940Z,54.00
2023-11-30T04:53:55.488Z,53.90
2023-11-30T04:56:24.003Z,54.00
2023-11-30T04:58:52.652Z,54.10
2023-11-30T05:01:21.249Z,54.30
2023-11-30T05:03:50.003Z,54.10
2023-11-30T05:06:18.668Z,54.00
2023-11-30T05:08:48.835Z,53.90
2023-11-30T05:11:17.504Z,53.90
2023-11-30T05:13:46.025Z,51.60
2023-11-30T05:16:15.799Z,51.50
2023-11-30T05:18:44.413Z,51.40
2023-11-30T05:21:13.767Z,51.10
2023-11-30T05:23:42.325Z,51.00
2023-11-30T05:26:12.480Z,50.80
2023-11-30T05:28:41.003Z,50.70
2023-11-30T05:31:10.159Z,51.10
2023-11-30T05:33:38.889Z,50.50
2023-11-30T05:36:08.888Z,50.40
2023-11-30T05:38:37.483Z,50.40
2023-11-30T05:41:06.899Z,50.40
2023-11-30T05:43:38.197Z,50.30
2023-11-30T05:46:07.697Z,50.20
2023-11-30T05:48:36.854Z,50.20
2023-11-30T05:51:05.861Z,50.10
2023-11-30T05:53:34.542Z,50.00
2023-11-30T05:56:03.202Z,50.00
2023-11-30T05:58:31.758Z,50.00
2023-11-30T06:01:01.677Z,50.00
2023-11-30T06:03:30.468Z,50.00
2023-11-30T06:05:59.385Z,50.10
2023-11-30T06:08:29.584Z,50.10
2023-11-30T06:10:58.208Z,50.20
2023-11-30T06:13:26.722Z,49.90
2023-11-30T06:15:56.177Z,49.90
2023-11-30T06:18:26.214Z,50.30
2023-11-30T06:20:54.737Z,50.40
2023-11-30T06:23:23.233Z,50.50
2023-11-30T06:25:51.747Z,50.80
2023-11-30T06:28:21.626Z,50.90
2023-11-30T06:30:50.192Z,51.20
2023-11-30T06:33:18.622Z,51.30
2023-11-30T06:35:48.635Z,51.40
2023-11-30T06:38:17.394Z,51.40
2023-11-30T06:40:45.865Z,51.10
2023-11-30T06:43:14.290Z,51.20
2023-11-30T06:45:42.991Z,50.90
2023-11-30T06:48:11.653Z,51.60
2023-11-30T06:50:40.248Z,46.30
2023-11-30T06:53:10.564Z,44.00
2023-11-30T06:55:39.080Z,41.50
2023-11-30T06:58:07.724Z,36.60
2023-11-30T07:00:36.615Z,38.60
2023-11-30T07:03:05.415Z,39.50
2023-11-30T07:05:34.022Z,40.00
2023-11-30T07:08:02.406Z,40.80
2023-11-30T07:10:33.286Z,41.40
2023-11-30T07:13:01.811Z,41.90
2023-11-30T07:15:30.380Z,42.50
2023-11-30T07:17:59.163Z,42.90
2023-11-30T07:20:27.790Z,43.20
2023-11-30T07:22:56.321Z,43.20
2023-11-30T07:25:25.191Z,43.40
2023-11-30T07:27:55.944Z,43.60
2023-11-30T07:30:25.848Z,43.80
2023-11-30T07:32:55.841Z,43.90
2023-11-30T07:35:25.522Z,44.00
2023-11-30T07:37:54.355Z,44.20
2023-11-30T07:40:22.927Z,44.30
2023-11-30T07:42:51.641Z,44.40
2023-11-30T07:45:21.692Z,44.40
2023-11-30T07:47:50.412Z,44.60
2023-11-30T07:50:19.059Z,44.60
2023-11-30T07:52:47.800Z,44.70
2023-11-30T07:55:16.802Z,44.80
2023-11-30T07:57:45.333Z,44.80
2023-11-30T08:00:16.626Z,44.90
2023-11-30T08:02:46.855Z,44.90
2023-11-30T08:05:16.145Z,45.30
2023-11-30T08:07:45.034Z,45.10
2023-11-30T08:10:13.575Z,45.70
2023-11-30T08:12:42.238Z,45.30
2023-11-30T08:15:12.023Z,45.50
2023-11-30T08:17:40.888Z,45.60
2023-11-30T08:20:15.163Z,45.60
2023-11-30T08:22:44.077Z,45.60
2023-11-30T08:25:13.381Z,45.70
2023-11-30T08:27:44.634Z,45.90
2023-11-30T08:30:15.845Z,45.90
2023-11-30T08:32:44.444Z,45.90
2023-11-30T08:35:14.562Z,46.00
2023-11-30T08:37:43.223Z,46.10
2023-11-30T08:40:13.011Z,46.20
2023-11-30T08:42:41.585Z,46.20
2023-11-30T08:45:11.471Z,46.30
2023-11-30T08:47:40.336Z,46.50
2023-11-30T08:50:10.549Z,46.50
2023-11-30T08:52:40.663Z,46.60
2023-11-30T08:55:09.370Z,46.60
2023-11-30T08:57:38.146Z,46.60
2023-11-30T09:00:12.798Z,46.60
2023-11-30T09:02:41.552Z,46.60
2023-11-30T09:05:12.696Z,46.60
2023-11-30T09:07:42.709Z,46.60
2023-11-30T09:10:13.667Z,46.70
2023-11-30T09:12:42.413Z,46.60
2023-11-30T09:15:13.809Z,46.70
2023-11-30T09:17:42.609Z,46.60
2023-11-30T09:20:12.080Z,46.70
2023-11-30T09:22:42.049Z,46.70
2023-11-30T09:25:12.817Z,46.80
2023-11-30T09:27:41.569Z,46.80
2023-11-30T09:30:12.915Z,46.80
2023-11-30T09:32:41.757Z,46.80
2023-11-30T09:35:12.716Z,46.80
2023-11-30T09:37:43.726Z,46.90
2023-11-30T09:40:12.448Z,47.00
2023-11-30T09:42:41.058Z,47.00
2023-11-30T09:45:11.252Z,47.20
2023-11-30T09:47:40.126Z,47.20
2023-11-30T09:50:10.466Z,47.30
2023-11-30T09:52:39.494Z,47.30
2023-11-30T09:55:13.464Z,47.60
2023-11-30T09:57:43.783Z,48.90
2023-11-30T10:00:14.771Z,49.70
2023-11-30T10:02:55.137Z,49.70
2023-11-30T10:05:26.405Z,49.20
2023-11-30T10:07:55.335Z,49.00
2023-11-30T10:10:25.301Z,49.10
2023-11-30T10:12:54.307Z,49.00
2023-11-30T10:15:23.825Z,49.00
2023-11-30T10:17:52.554Z,48.90
2023-11-30T10:20:21.493Z,48.80
2023-11-30T10:22:50.104Z,48.70
2023-11-30T10:25:18.906Z,48.60
2023-11-30T10:27:53.626Z,48.70
2023-11-30T10:30:27.969Z,48.00
2023-11-30T10:32:57.800Z,48.50
2023-11-30T10:35:29.470Z,48.60
2023-11-30T10:38:01.409Z,48.70
2023-11-30T10:40:30.198Z,48.70
2023-11-30T10:43:05.996Z,48.70
2023-11-30T10:45:37.397Z,48.80
2023-11-30T10:48:08.649Z,48.90
2023-11-30T10:50:37.653Z,49.10
2023-11-30T10:53:15.699Z,49.20
2023-11-30T10:55:45.915Z,49.70
2023-11-30T10:58:22.422Z,49.70
2023-11-30T11:00:58.422Z,49.70
2023-11-30T11:03:29.477Z,50.30
2023-11-30T11:05:58.437Z,49.70
2023-11-30T11:08:30.379Z,49.60
2023-11-30T11:11:09.786Z,49.60
2023-11-30T11:13:49.224Z,49.70
2023-11-30T11:16:18.224Z,49.60
2023-11-30T11:18:47.304Z,49.70
2023-11-30T11:21:29.521Z,49.70
2023-11-30T11:24:04.725Z,49.70
2023-11-30T11:26:44.869Z,49.60
2023-11-30T11:29:23.787Z,49.70
2023-11-30T11:31:57.944Z,49.60
2023-11-30T11:34:25.549Z,49.40
2023-11-30T11:36:54.156Z,49.20
2023-11-30T11:39:23.335Z,48.70
2023-11-30T11:41:51.986Z,48.80
2023-11-30T11:44:24.814Z,49.00
2023-11-30T11:46:53.970Z,49.10
2023-11-30T11:49:22.647Z,49.20
2023-11-30T11:51:52.302Z,48.90
2023-11-30T11:54:22.382Z,48.40
2023-11-30T11:56:52.971Z,50.80
2023-11-30T11:59:28.469Z,50.30
2023-11-30T12:01:59.667Z,49.90
2023-11-30T12:04:33.434Z,50.40
2023-11-30T12:07:15.908Z,50.30
2023-11-30T12:09:54.862Z,52.70
2023-11-30T12:12:31.648Z,52.10
2023-11-30T12:15:02.086Z,51.90
2023-11-30T12:17:30.592Z,51.80
2023-11-30T12:20:00.503Z,51.80
2023-11-30T12:22:30.569Z,51.70
2023-11-30T12:24:59.360Z,51.70
2023-11-30T12:27:28.471Z,51.50
2023-11-30T12:29:56.963Z,51.50
2023-11-30T12:32:27.899Z,51.40
2023-11-30T12:34:58.228Z,51.30
2023-11-30T12:37:26.853Z,51.10
2023-11-30T12:39:55.406Z,51.10
2023-11-30T12:42:25.233Z,51.10
2023-11-30T12:44:53.804Z,51.10
2023-11-30T12:47:23.095Z,51.00
2023-11-30T12:49:53.227Z,51.00
2023-11-30T12:52:22.494Z,50.90
2023-11-30T12:54:53.244Z,50.80
2023-11-30T12:57:22.182Z,50.70
2023-11-30T12:59:50.936Z,50.50
2023-11-30T13:02:19.968Z,50.50
2023-11-30T13:04:48.800Z,50.50
2023-11-30T13:07:19.375Z,50.50
2023-11-30T13:09:48.262Z,50.50
2023-11-30T13:12:17.025Z,50.40
2023-11-30T13:14:45.796Z,50.40
2023-11-30T13:17:14.668Z,50.30
2023-11-30T13:19:46.226Z,50.40
2023-11-30T13:22:14.330Z,50.00
2023-11-30T13:24:44.636Z,50.20
2023-11-30T13:27:13.561Z,50.40
2023-11-30T13:29:42.076Z,50.40
2023-11-30T13:34:44.474Z,50.50
2023-11-30T13:37:13.190Z,50.50
2023-11-30T13:39:43.245Z,50.40
2023-11-30T13:42:11.972Z,50.40
2023-11-30T13:44:40.636Z,50.30
2023-11-30T13:47:09.377Z,50.50
2023-11-30T13:49:38.049Z,50.60
2023-11-30T13:52:08.520Z,50.60
2023-11-30T13:54:37.232Z,50.50
2023-11-30T13:57:09.624Z,50.30
2023-11-30T13:59:38.300Z,50.10
2023-11-30T14:02:08.666Z,50.20
2023-11-30T14:04:37.336Z,50.30
2023-11-30T14:07:06.087Z,50.30
2023-11-30T14:09:34.653Z,50.30
2023-11-30T14:12:03.084Z,50.20
2023-11-30T14:14:32.928Z,50.10
2023-11-30T14:17:04.937Z,50.10
2023-11-30T14:19:35.379Z,50.20
2023-11-30T14:22:04.415Z,50.20
2023-11-30T14:24:32.980Z,49.90
2023-11-30T14:27:01.847Z,49.70
2023-11-30T14:29:30.395Z,50.30
2023-11-30T14:32:00.597Z,49.90
2023-11-30T14:34:29.568Z,50.00
2023-11-30T14:36:58.123Z,50.10
2023-11-30T14:39:29.383Z,49.90
2023-11-30T14:41:58.041Z,49.40
2023-11-30T14:44:27.475Z,49.10
2023-11-30T14:46:56.211Z,48.90
2023-11-30T14:49:26.343Z,48.50
2023-11-30T14:51:54.991Z,49.00
2023-11-30T14:54:23.707Z,49.20
2023-11-30T14:56:53.521Z,49.40
2023-11-30T14:59:22.410Z,49.80
2023-11-30T15:01:52.643Z,50.00
2023-11-30T15:04:24.284Z,50.00
2023-11-30T15:06:54.275Z,50.30
2023-11-30T15:09:23.986Z,50.60
2023-11-30T15:11:54.192Z,50.60
2023-11-30T15:14:22.704Z,50.80
2023-11-30T15:16:51.592Z,50.80
2023-11-30T15:19:20.594Z,50.90
2023-11-30T15:21:49.397Z,51.10
2023-11-30T15:24:18.405Z,50.60
2023-11-30T15:26:47.826Z,50.30
2023-11-30T15:29:16.440Z,50.20
2023-11-30T15:31:46.739Z,50.30
2023-11-30T15:34:15.816Z,50.40
2023-11-30T15:36:44.402Z,50.30
2023-11-30T15:39:17.077Z,50.30
2023-11-30T15:41:47.735Z,50.10
2023-11-30T15:44:16.728Z,50.10
2023-11-30T15:46:46.399Z,50.10
2023-11-30T15:49:15.720Z,50.10
2023-11-30T15:51:44.880Z,50.30
2023-11-30T15:54:13.583Z,50.30
2023-11-30T15:56:42.149Z,50.10
2023-11-30T15:59:12.009Z,50.20
2023-11-30T16:01:40.935Z,50.40
2023-11-30T16:04:09.945Z,50.30
2023-11-30T16:06:39.959Z,50.40
2023-11-30T16:09:10.823Z,50.40
2023-11-30T16:11:39.443Z,50.50
2023-11-30T16:14:07.867Z,50.60
2023-11-30T16:16:42.114Z,50.50
2023-11-30T16:19:10.929Z,50.10
2023-11-30T16:21:39.641Z,49.80
2023-11-30T16:24:08.781Z,49.30
2023-11-30T16:26:37.811Z,49.20
2023-11-30T16:29:06.471Z,49.20
2023-11-30T16:31:35.087Z,49.30
2023-11-30T16:34:05.434Z,49.40
2023-11-30T16:36:34.214Z,49.40
2023-11-30T16:39:02.652Z,49.30
2023-11-30T16:41:31.420Z,49.70
2023-11-30T16:44:00.053Z,49.20
2023-11-30T16:46:28.761Z,49.30
2023-11-30T16:49:00.086Z,49.30
2023-11-30T16:51:30.520Z,49.30
2023-11-30T16:53:59.294Z,49.10
2023-11-30T16:56:34.026Z,49.00
2023-11-30T16:59:02.599Z,49.10
2023-11-30T17:01:35.251Z,49.10
2023-11-30T17:04:04.442Z,49.10
2023-11-30T17:06:34.350Z,49.10
2023-11-30T17:09:05.322Z,49.10
2023-11-30T17:11:34.294Z,49.10
2023-11-30T17:14:02.977Z,49.20
2023-11-30T17:16:31.645Z,49.20
2023-11-30T17:19:00.281Z,49.30
2023-11-30T17:21:28.785Z,49.10
2023-11-30T17:23:59.534Z,49.20
2023-11-30T17:26:29.774Z,49.80
2023-11-30T17:28:58.482Z,49.20
2023-11-30T17:31:27.477Z,49.30
2023-11-30T17:33:56.323Z,49.20
2023-11-30T17:36:25.669Z,49.30
2023-11-30T17:38:54.734Z,49.30
2023-11-30T17:41:24.851Z,49.20
2023-11-30T17:43:53.527Z,49.60
2023-11-30T17:46:22.219Z,49.70
2023-11-30T17:48:51.149Z,49.60
2023-11-30T17:51:19.885Z,49.20
2023-11-30T17:53:48.536Z,49.40
2023-11-30T17:56:17.868Z,49.80
2023-11-30T17:58:48.072Z,50.30
2023-11-30T18:01:16.918Z,50.30
2023-11-30T18:03:45.943Z,50.30
2023-11-30T18:06:14.745Z,50.30
2023-11-30T18:08:43.590Z,50.50
2023-11-30T18:11:13.230Z,50.90
2023-11-30T18:13:41.925Z,51.10
2023-11-30T18:16:13.130Z,51.30
2023-11-30T18:18:42.277Z,51.30
2023-11-30T18:21:12.771Z,51.20
2023-11-30T18:23:41.541Z,51.20
2023-11-30T18:26:10.242Z,51.90
2023-11-30T18:28:39.211Z,51.40
2023-11-30T18:31:16.638Z,52.00
2023-11-30T18:33:52.420Z,52.00
2023-11-30T18:36:21.035Z,51.80
2023-11-30T18:38:52.149Z,51.00
2023-11-30T18:41:21.463Z,50.80
2023-11-30T18:43:51.172Z,50.80
2023-11-30T18:46:21.461Z,50.70
2023-11-30T18:48:51.611Z,52.90
2023-11-30T18:51:20.552Z,53.50
2023-11-30T18:53:49.185Z,54.30
2023-11-30T18:56:17.756Z,54.20
2023-11-30T18:58:48.010Z,53.80
2023-11-30T19:01:17.274Z,54.00
2023-11-30T19:03:46.537Z,54.00
2023-11-30T19:06:19.284Z,54.50
2023-11-30T19:08:49.934Z,58.50
2023-11-30T19:11:18.992Z,58.60
2023-11-30T19:13:47.638Z,59.40
2023-11-30T19:16:21.931Z,61.50
2023-11-30T19:18:51.540Z,62.10
2023-11-30T19:21:21.831Z,64.00
2023-11-30T19:23:50.871Z,65.40
2023-11-30T19:26:19.518Z,65.60
2023-11-30T19:28:48.243Z,64.60
2023-11-30T19:31:17.187Z,62.70
2023-11-30T19:33:46.157Z,62.60
2023-11-30T19:36:14.864Z,62.30
2023-11-30T19:38:45.056Z,62.10
2023-11-30T19:41:13.963Z,59.00
2023-11-30T19:43:43.738Z,57.40
2023-11-30T19:46:16.709Z,53.10
2023-11-30T19:48:46.365Z,51.80
2023-11-30T19:51:17.752Z,52.20
2023-11-30T19:53:47.919Z,52.50
2023-11-30T19:56:19.086Z,53.20
2023-11-30T19:58:47.601Z,53.70
2023-11-30T20:01:22.967Z,54.00
2023-11-30T20:03:51.945Z,54.50
2023-11-30T20:06:21.448Z,54.80
2023-11-30T20:08:51.510Z,55.00
2023-11-30T20:11:22.812Z,55.60
2023-11-30T20:13:51.259Z,55.50
2023-11-30T20:16:19.890Z,55.50
2023-11-30T20:18:48.451Z,55.80
2023-11-30T20:21:22.616Z,56.20
2023-11-30T20:23:53.023Z,56.30
2023-11-30T20:26:21.814Z,56.40
2023-11-30T20:28:50.315Z,56.30
2023-11-30T20:31:18.937Z,56.50
2023-11-30T20:33:51.222Z,56.50
2023-11-30T20:36:19.931Z,56.80
2023-11-30T20:38:48.497Z,56.80
2023-11-30T20:41:18.505Z,56.90
2023-11-30T20:43:51.259Z,56.90
2023-11-30T20:46:21.372Z,56.70
2023-11-30T20:48:52.283Z,56.30
2023-11-30T20:51:21.408Z,56.50
2023-11-30T20:53:50.205Z,56.20
2023-11-30T20:56:20.147Z,55.90
2023-11-30T20:58:49.899Z,55.50
2023-11-30T21:01:19.504Z,55.20
2023-11-30T21:03:48.173Z,55.20
2023-11-30T21:06:16.850Z,54.70
2023-11-30T21:08:45.414Z,54.40
2023-11-30T21:11:14.750Z,54.10
2023-11-30T21:13:45.159Z,53.90
2023-11-30T21:16:19.598Z,54.60
2023-11-30T21:18:48.224Z,53.70
2023-11-30T21:21:17.868Z,53.00
2023-11-30T21:23:46.577Z,52.90
2023-11-30T21:26:15.216Z,52.60
2023-11-30T21:28:45.165Z,52.70
2023-11-30T21:31:14.342Z,52.60
2023-11-30T21:33:42.898Z,52.60
2023-11-30T21:36:15.050Z,52.40
2023-11-30T21:38:43.731Z,52.80
2023-11-30T21:41:16.299Z,52.90
2023-11-30T21:43:46.211Z,53.00
2023-11-30T21:46:14.748Z,52.80
2023-11-30T21:48:43.614Z,52.70
2023-11-30T21:51:13.900Z,52.80
2023-11-30T21:53:42.764Z,52.80
2023-11-30T21:56:12.349Z,52.80
2023-11-30T21:58:40.956Z,52.70
2023-11-30T22:01:12.581Z,52.90
2023-11-30T22:03:41.355Z,52.90
2023-11-30T22:06:11.931Z,52.80
2023-11-30T22:08:40.618Z,52.90
2023-11-30T22:11:09.636Z,52.90
2023-11-30T22:13:38.448Z,52.90
2023-11-30T22:16:12.049Z,52.90
2023-11-30T22:18:44.811Z,52.90
2023-11-30T22:21:13.343Z,52.60
2023-11-30T22:23:42.285Z,52.70
2023-11-30T22:26:10.804Z,52.70
2023-11-30T22:28:39.608Z,52.60
2023-11-30T22:31:09.048Z,52.50
2023-11-30T22:33:38.689Z,52.50
2023-11-30T22:36:10.843Z,52.50
2023-11-30T22:38:45.379Z,52.40
2023-11-30T22:41:15.287Z,52.30
2023-11-30T22:43:44.001Z,52.30
2023-11-30T22:46:18.487Z,52.20
2023-11-30T22:48:47.558Z,52.20
2023-11-30T22:51:17.696Z,52.30
2023-11-30T22:53:46.707Z,52.20
2023-11-30T22:56:19.579Z,52.20
2023-11-30T22:58:48.720Z,52.20
2023-11-30T23:01:18.170Z,52.20
2023-11-30T23:03:48.324Z,52.10
2023-11-30T23:06:19.058Z,52.00
2023-11-30T23:08:48.723Z,51.90
2023-11-30T23:11:17.316Z,51.90
2023-11-30T23:13:46.213Z,51.80
2023-11-30T23:16:15.191Z,51.70
2023-11-30T23:18:44.102Z,51.60
2023-11-30T23:21:12.725Z,52.20
2023-11-30T23:23:42.765Z,51.60
2023-11-30T23:26:11.209Z,51.60
2023-11-30T23:28:40.231Z,51.50
2023-11-30T23:31:08.959Z,51.50
2023-11-30T23:33:37.563Z,51.40
2023-11-30T23:36:07.636Z,51.40
2023-11-30T23:38:36.385Z,51.50
2023-11-30T23:41:06.770Z,51.40
2023-11-30T23:43:35.788Z,52.00
2023-11-30T23:46:04.939Z,51.40
2023-11-30T23:48:33.465Z,51.40
2023-11-30T23:51:02.234Z,51.40
2023-11-30T23:53:30.896Z,51.40
2023-11-30T23:55:59.811Z,51.40
2023-11-30T23:58:30.054Z,51.30
